Terminal Aerodrome Forecast
Issued by NWS Goodland, KS

Home | Current Version | Previous Version | Text Only | Print | Product List | Glossary On
Versions: 1 2 3 4 5 6 7 8 9 10 11 12 13 14
000
FTUS43 KGLD 211533 AAB
TAFGLD
TAF AMD
KGLD 211533Z 2116/2212 18013G21KT 1/4SM FG VV002
      TEMPO 2116/2117 3SM BR OVC010
     FM211700 19017G25KT P6SM SCT015
     FM211900 19019G27KT P6SM SKC
     FM220000 18016KT P6SM BKN150=

USA.gov is the U.S. government's official web portal to all federal, state and local government web resources and services.